createdAt,value
2022-10-21T00:02:23.113Z,13.63
2022-10-21T00:05:39.114Z,7.93
2022-10-21T00:08:39.287Z,9.63
2022-10-21T00:12:11.146Z,7.77
2022-10-21T00:15:30.189Z,9.85
2022-10-21T00:18:54.168Z,9.90
2022-10-21T00:21:54.225Z,8.40
2022-10-21T00:25:07.164Z,11.93
2022-10-21T00:28:24.187Z,12.03
2022-10-21T00:31:48.184Z,12.20
2022-10-21T00:34:51.201Z,12.83
2022-10-21T00:38:06.221Z,12.95
2022-10-21T00:41:24.237Z,8.65
2022-10-21T00:44:53.326Z,10.50
2022-10-21T00:48:08.297Z,10.27
2022-10-21T00:51:39.253Z,8.37
2022-10-21T00:54:51.266Z,8.07
2022-10-21T00:58:23.006Z,9.80
2022-10-21T01:01:40.332Z,8.15
2022-10-21T01:05:10.295Z,11.73
2022-10-21T01:08:25.317Z,10.55
2022-10-21T01:11:56.321Z,12.23
2022-10-21T01:15:11.373Z,12.07
2022-10-21T01:18:37.350Z,10.60
2022-10-21T01:21:55.324Z,7.87
2022-10-21T01:25:24.447Z,9.15
2022-10-21T01:28:37.363Z,7.40
2022-10-21T01:32:03.367Z,8.45
2022-10-21T01:35:16.424Z,7.63
2022-10-21T01:38:44.435Z,9.43
2022-10-21T01:42:00.475Z,8.55
2022-10-21T01:45:25.457Z,10.80
2022-10-21T01:48:39.450Z,6.77
2022-10-21T01:52:07.507Z,13.20
2022-10-21T01:55:22.436Z,7.67
2022-10-21T01:58:50.571Z,8.77
2022-10-21T02:02:05.460Z,9.55
2022-10-21T02:05:37.484Z,9.00
2022-10-21T02:08:52.602Z,8.60
2022-10-21T02:12:19.507Z,11.10
2022-10-21T02:15:32.456Z,7.57
2022-10-21T02:18:45.519Z,8.40
2022-10-21T02:22:02.546Z,7.75
2022-10-21T02:25:27.579Z,7.50
2022-10-21T02:32:09.571Z,10.93
2022-10-21T02:35:24.566Z,9.93
2022-10-21T02:38:54.618Z,8.77
2022-10-21T02:42:06.570Z,8.45
2022-10-21T02:45:34.611Z,9.70
2022-10-21T02:48:40.624Z,8.10
2022-10-21T02:52:07.641Z,10.93
2022-10-21T02:55:24.677Z,9.57
2022-10-21T02:58:36.619Z,17.00
2022-10-21T03:01:42.687Z,10.35
2022-10-21T03:04:57.636Z,7.97
2022-10-21T03:08:00.685Z,7.45
2022-10-21T03:11:29.693Z,13.60
2022-10-21T03:14:29.730Z,14.10
2022-10-21T03:17:45.728Z,7.20
2022-10-21T03:21:00.720Z,10.40
2022-10-21T03:24:28.448Z,7.90
2022-10-21T03:27:38.816Z,10.07
2022-10-21T03:30:53.751Z,7.03
2022-10-21T03:33:56.754Z,11.43
2022-10-21T03:37:09.793Z,13.23
2022-10-21T03:40:12.758Z,8.40
2022-10-21T03:43:41.831Z,8.27
2022-10-21T03:46:41.786Z,11.13
2022-10-21T03:49:59.777Z,9.70
2022-10-21T03:53:13.546Z,11.37
2022-10-21T03:56:15.832Z,6.87
2022-10-21T03:59:32.809Z,12.17
2022-10-21T04:02:44.899Z,7.65
2022-10-21T04:06:02.839Z,7.95
2022-10-21T04:09:09.932Z,7.67
2022-10-21T04:12:24.912Z,14.27
2022-10-21T04:15:41.889Z,7.00
2022-10-21T04:19:10.051Z,8.65
2022-10-21T04:22:27.909Z,8.55
2022-10-21T04:25:42.887Z,8.60
2022-10-21T04:28:43.011Z,9.23
2022-10-21T04:32:15.944Z,10.77
2022-10-21T04:35:30.954Z,10.75
2022-10-21T04:38:45.963Z,10.30
2022-10-21T04:41:45.968Z,9.80
2022-10-21T04:45:00.994Z,7.90
2022-10-21T04:48:17.999Z,8.17
2022-10-21T04:51:47.962Z,7.10
2022-10-21T04:54:48.098Z,9.73
2022-10-21T04:58:00.997Z,8.57
2022-10-21T05:01:16.171Z,7.20
2022-10-21T05:04:46.010Z,9.33
2022-10-21T05:07:49.041Z,7.30
2022-10-21T05:11:27.155Z,6.57
2022-10-21T05:14:27.020Z,7.63
2022-10-21T05:17:51.047Z,7.33
2022-10-21T05:21:08.199Z,6.13
2022-10-21T05:24:21.136Z,10.60
2022-10-21T05:27:24.125Z,6.97
2022-10-21T05:30:43.079Z,6.27
2022-10-21T05:33:43.113Z,7.25
2022-10-21T05:37:09.161Z,8.07
2022-10-21T05:40:15.154Z,10.23
2022-10-21T05:43:35.155Z,6.55
2022-10-21T05:46:35.115Z,8.60
2022-10-21T05:49:51.144Z,5.83
2022-10-21T05:53:11.172Z,6.17
2022-10-21T05:56:27.187Z,10.23
2022-10-21T05:59:42.244Z,6.03
2022-10-21T06:03:06.214Z,10.43
2022-10-21T06:06:33.200Z,11.43
2022-10-21T06:09:47.224Z,11.25
2022-10-21T06:13:03.263Z,7.00
2022-10-21T06:16:03.229Z,5.80
2022-10-21T06:19:21.245Z,7.03
2022-10-21T06:22:36.258Z,5.90
2022-10-21T06:26:11.303Z,6.63
2022-10-21T06:29:20.282Z,5.60
2022-10-21T06:32:36.299Z,7.53
2022-10-21T06:35:39.283Z,8.20
2022-10-21T06:39:06.329Z,8.25
2022-10-21T06:42:22.340Z,8.45
2022-10-21T06:45:40.376Z,6.50
2022-10-21T06:48:40.365Z,10.10
2022-10-21T06:51:59.359Z,9.03
2022-10-21T06:55:05.340Z,7.00
2022-10-21T06:58:34.360Z,5.65
2022-10-21T07:02:00.195Z,6.60
2022-10-21T07:05:07.432Z,8.20
2022-10-21T07:08:09.400Z,8.75
2022-10-21T07:11:40.449Z,6.97
2022-10-21T07:14:57.421Z,6.57
2022-10-21T07:18:12.432Z,8.43
2022-10-21T07:21:27.461Z,9.95
2022-10-21T07:24:46.470Z,6.95
2022-10-21T07:27:58.455Z,10.25
2022-10-21T07:31:30.529Z,7.23
2022-10-21T07:34:33.496Z,9.63
2022-10-21T07:37:48.508Z,8.37
2022-10-21T07:41:03.504Z,8.50
2022-10-21T07:44:27.697Z,9.55
2022-10-21T07:47:41.774Z,9.10
2022-10-21T07:50:53.542Z,10.27
2022-10-21T07:54:05.561Z,7.80
2022-10-21T07:57:20.630Z,8.97
2022-10-21T08:00:33.590Z,9.35
2022-10-21T08:04:08.653Z,9.60
2022-10-21T08:07:26.671Z,10.47
2022-10-21T08:10:38.688Z,10.53
2022-10-21T08:13:38.563Z,13.87
2022-10-21T08:17:15.638Z,9.70
2022-10-21T08:20:29.606Z,8.10
2022-10-21T08:23:56.632Z,10.23
2022-10-21T08:26:59.659Z,22.10
2022-10-21T08:30:14.651Z,14.57
2022-10-21T08:33:14.684Z,10.50
2022-10-21T08:36:44.685Z,12.07
2022-10-21T08:39:44.700Z,11.67
2022-10-21T08:43:11.684Z,9.30
2022-10-21T08:46:26.763Z,10.85
2022-10-21T08:49:57.752Z,12.10
2022-10-21T08:53:14.704Z,9.23
2022-10-21T08:56:36.789Z,8.57
2022-10-21T08:59:52.777Z,11.17
2022-10-21T09:03:29.765Z,9.60
2022-10-21T09:06:54.801Z,16.35
2022-10-21T09:10:23.776Z,8.75
2022-10-21T09:13:42.812Z,9.03
2022-10-21T09:17:09.830Z,10.20
2022-10-21T09:20:25.798Z,8.23
2022-10-21T09:24:14.781Z,8.63
2022-10-21T09:27:37.823Z,10.57
2022-10-21T09:30:58.827Z,12.17
2022-10-21T09:34:16.929Z,10.83
2022-10-21T09:37:50.884Z,8.30
2022-10-21T09:41:05.924Z,8.07
2022-10-21T09:44:39.026Z,8.63
2022-10-21T09:47:41.905Z,10.77
2022-10-21T09:51:12.879Z,8.05
2022-10-21T09:54:26.908Z,7.70
2022-10-21T09:57:55.946Z,8.03
2022-10-21T10:01:09.947Z,9.20
2022-10-21T10:04:37.919Z,8.07
2022-10-21T10:07:56.966Z,7.10
2022-10-21T10:11:26.922Z,7.45
2022-10-21T10:14:46.000Z,6.53
2022-10-21T10:18:14.999Z,8.35
2022-10-21T10:21:30.018Z,7.10
2022-10-21T10:24:42.011Z,10.85
2022-10-21T10:27:42.033Z,8.30
2022-10-21T10:31:12.998Z,10.07
2022-10-21T10:34:30.044Z,6.10
2022-10-21T10:37:58.053Z,7.30
2022-10-21T10:41:10.048Z,7.70
2022-10-21T10:44:38.167Z,8.00
2022-10-21T10:47:54.304Z,7.37
2022-10-21T10:51:24.155Z,7.63
2022-10-21T10:54:43.147Z,5.80
2022-10-21T10:58:12.396Z,10.57
2022-10-21T11:01:22.149Z,7.23
2022-10-21T11:08:12.145Z,8.00
2022-10-21T11:11:53.542Z,6.97
2022-10-21T11:14:45.102Z,6.73
2022-10-21T11:18:29.908Z,8.30
2022-10-21T11:21:30.248Z,8.93
2022-10-21T11:24:58.187Z,5.87
2022-10-21T11:28:24.214Z,6.20
2022-10-21T11:32:10.164Z,7.90
2022-10-21T11:35:02.226Z,6.17
2022-10-21T11:38:32.202Z,6.35
2022-10-21T11:41:48.236Z,7.20
2022-10-21T11:45:19.234Z,4.47
2022-10-21T11:48:37.270Z,8.03
2022-10-21T11:52:11.312Z,4.77
2022-10-21T11:55:39.302Z,5.20
2022-10-21T11:59:08.315Z,9.10
2022-10-21T12:02:22.431Z,4.90
2022-10-21T12:05:51.346Z,9.40
2022-10-21T12:09:11.385Z,6.00
2022-10-21T12:12:42.542Z,6.65
2022-10-21T12:16:00.398Z,6.80
2022-10-21T12:22:46.462Z,3.90
2022-10-21T12:26:11.435Z,6.97
2022-10-21T12:29:23.404Z,6.73
2022-10-21T12:32:47.407Z,5.07
2022-10-21T12:36:07.451Z,3.95
2022-10-21T12:39:37.446Z,5.30
2022-10-21T12:42:55.450Z,7.27
2022-10-21T12:46:27.639Z,7.05
2022-10-21T12:49:46.468Z,5.15
2022-10-21T12:53:12.525Z,5.03
2022-10-21T12:56:27.547Z,4.23
2022-10-21T12:59:52.656Z,4.70
2022-10-21T13:03:08.459Z,4.33
2022-10-21T13:06:36.518Z,5.55
2022-10-21T13:09:56.510Z,7.67
2022-10-21T13:13:27.503Z,9.60
2022-10-21T13:16:49.612Z,4.03
2022-10-21T13:20:16.541Z,4.53
2022-10-21T13:23:41.561Z,4.60
2022-10-21T13:27:13.561Z,4.65
2022-10-21T13:30:25.683Z,6.20
2022-10-21T13:33:53.644Z,2.70
2022-10-21T13:37:05.641Z,4.80
2022-10-21T13:40:29.660Z,4.60
2022-10-21T13:43:43.622Z,5.10
2022-10-21T13:46:55.721Z,4.63
2022-10-21T13:50:14.716Z,3.80
2022-10-21T13:53:43.686Z,3.43
2022-10-21T13:56:58.778Z,3.95
2022-10-21T14:00:27.671Z,4.55
2022-10-21T14:03:43.734Z,5.07
2022-10-21T14:06:55.781Z,3.87
2022-10-21T14:10:22.715Z,5.07
2022-10-21T14:13:29.726Z,4.83
2022-10-21T14:17:01.777Z,4.50
2022-10-21T14:20:16.806Z,3.15
2022-10-21T14:23:49.734Z,4.17
2022-10-21T14:27:04.848Z,5.10
2022-10-21T14:30:21.760Z,3.77
2022-10-21T14:33:39.794Z,1.90
2022-10-21T14:37:18.778Z,2.33
2022-10-21T14:40:37.810Z,3.15
2022-10-21T14:44:07.808Z,4.20
2022-10-21T14:47:44.824Z,2.50
2022-10-21T14:51:16.383Z,3.50
2022-10-21T14:54:28.848Z,7.90
2022-10-21T14:57:58.878Z,2.05
2022-10-21T15:01:20.912Z,2.35
2022-10-21T15:05:06.897Z,2.83
2022-10-21T15:08:27.863Z,2.30
2022-10-21T15:12:00.957Z,5.10
2022-10-21T15:15:06.940Z,2.27
2022-10-21T15:18:34.926Z,2.53
2022-10-21T15:21:50.919Z,2.57
2022-10-21T15:25:19.071Z,3.07
2022-10-21T15:28:41.127Z,2.77
2022-10-21T15:31:55.991Z,3.63
2022-10-21T15:35:01.970Z,1.97
2022-10-21T15:38:14.049Z,2.70
2022-10-21T15:41:29.009Z,5.05
2022-10-21T15:44:59.008Z,4.27
2022-10-21T15:48:17.011Z,3.50
2022-10-21T15:51:44.093Z,2.30
2022-10-21T15:54:50.001Z,2.30
2022-10-21T15:58:09.030Z,4.13
2022-10-21T16:01:24.128Z,4.10
2022-10-21T16:04:48.094Z,2.20
2022-10-21T16:07:48.062Z,2.30
2022-10-21T16:11:00.124Z,3.60
2022-10-21T16:14:15.049Z,3.00
2022-10-21T16:17:50.095Z,2.65
2022-10-21T16:20:50.088Z,2.57
2022-10-21T16:24:02.243Z,4.73
2022-10-21T16:27:14.519Z,2.53
2022-10-21T16:30:41.192Z,3.33
2022-10-21T16:33:50.190Z,2.37
2022-10-21T16:37:03.224Z,1.90
2022-10-21T16:40:18.208Z,4.15
2022-10-21T16:43:33.207Z,2.37
2022-10-21T16:46:45.213Z,6.07
2022-10-21T16:50:04.209Z,2.27
2022-10-21T16:53:24.195Z,1.80
2022-10-21T16:56:43.282Z,2.65
2022-10-21T16:59:46.295Z,2.50
2022-10-21T17:03:05.204Z,3.70
2022-10-21T17:06:11.302Z,2.50
2022-10-21T17:09:40.261Z,3.43
2022-10-21T17:12:40.284Z,2.00
2022-10-21T17:16:07.374Z,3.20
2022-10-21T17:19:22.280Z,4.50
2022-10-21T17:22:37.311Z,2.70
2022-10-21T17:25:57.323Z,3.43
2022-10-21T17:29:23.335Z,2.40
2022-10-21T17:32:36.332Z,2.57
2022-10-21T17:35:58.509Z,2.73
2022-10-21T17:39:13.346Z,4.30
2022-10-21T17:42:42.359Z,1.80
2022-10-21T17:45:48.354Z,2.50
2022-10-21T17:49:16.389Z,2.13
2022-10-21T17:52:16.402Z,4.07
2022-10-21T17:55:43.381Z,2.85
2022-10-21T17:58:59.488Z,3.90
2022-10-21T18:02:15.434Z,3.37
2022-10-21T18:05:30.425Z,1.97
2022-10-21T18:08:33.598Z,2.50
2022-10-21T18:11:54.467Z,2.87
2022-10-21T18:15:08.462Z,2.27
2022-10-21T18:18:35.527Z,2.40
2022-10-21T18:21:47.471Z,2.45
2022-10-21T18:24:59.495Z,2.40
2022-10-21T18:27:59.511Z,5.27
2022-10-21T18:31:26.524Z,2.97
2022-10-21T18:34:27.500Z,2.23
2022-10-21T18:37:45.526Z,2.40
2022-10-21T18:41:18.936Z,3.95
2022-10-21T18:44:34.576Z,2.40
2022-10-21T18:47:47.530Z,3.43
2022-10-21T18:50:59.611Z,2.40
2022-10-21T18:54:14.569Z,2.83
2022-10-21T18:57:29.597Z,3.83
2022-10-21T19:00:32.596Z,2.90
2022-10-21T19:04:03.816Z,2.30
2022-10-21T19:07:06.706Z,3.30
2022-10-21T19:10:25.581Z,2.40
2022-10-21T19:13:40.687Z,4.80
2022-10-21T19:17:11.704Z,4.40
2022-10-21T19:20:30.671Z,2.45
2022-10-21T19:23:43.634Z,3.13
2022-10-21T19:26:58.726Z,4.13
2022-10-21T19:30:14.696Z,2.83
2022-10-21T19:33:17.691Z,2.37
2022-10-21T19:36:46.728Z,2.80
2022-10-21T19:39:47.714Z,3.93
2022-10-21T19:43:00.749Z,2.87
2022-10-21T19:46:03.854Z,3.25
2022-10-21T19:49:35.733Z,2.53
2022-10-21T19:52:52.761Z,2.63
2022-10-21T19:56:07.764Z,5.27
2022-10-21T19:59:11.856Z,2.60
2022-10-21T20:02:42.841Z,3.07
2022-10-21T20:06:03.786Z,4.00
2022-10-21T20:09:20.817Z,3.57
2022-10-21T20:12:35.848Z,3.43
2022-10-21T20:15:35.878Z,7.20
2022-10-21T20:18:53.872Z,2.65
2022-10-21T20:21:56.835Z,2.55
2022-10-21T20:25:25.877Z,2.65
2022-10-21T20:28:37.913Z,3.60
2022-10-21T20:32:08.854Z,4.80
2022-10-21T20:35:11.899Z,3.80
2022-10-21T20:38:25.912Z,4.37
2022-10-21T20:41:42.949Z,4.07
2022-10-21T20:44:54.945Z,3.23
2022-10-21T20:47:57.929Z,2.37
2022-10-21T20:51:25.953Z,2.70
2022-10-21T20:54:40.911Z,3.87
2022-10-21T20:58:07.045Z,4.35
2022-10-21T21:01:10.113Z,3.75
2022-10-21T21:04:35.044Z,3.95
2022-10-21T21:07:38.456Z,3.03
2022-10-21T21:10:59.132Z,3.07
2022-10-21T21:14:16.109Z,2.87
2022-10-21T21:17:31.052Z,4.20
2022-10-21T21:20:49.041Z,3.90
2022-10-21T21:24:17.088Z,5.73
2022-10-21T21:27:20.079Z,2.80
2022-10-21T21:30:51.065Z,6.37
2022-10-21T21:33:51.074Z,2.83
2022-10-21T21:37:07.094Z,4.50
2022-10-21T21:40:10.233Z,5.70
2022-10-21T21:43:23.156Z,2.83
2022-10-21T21:46:37.116Z,3.97
2022-10-21T21:49:49.164Z,3.55
2022-10-21T21:52:52.168Z,5.80
2022-10-21T21:56:04.160Z,2.70
2022-10-21T21:59:16.142Z,3.90
2022-10-21T22:02:46.613Z,3.33
2022-10-21T22:06:02.280Z,4.83
2022-10-21T22:09:05.257Z,2.90
2022-10-21T22:12:23.074Z,2.43
2022-10-21T22:15:43.316Z,2.50
2022-10-21T22:18:50.188Z,3.17
2022-10-21T22:21:50.278Z,4.43
2022-10-21T22:25:09.242Z,2.93
2022-10-21T22:28:15.279Z,4.65
2022-10-21T22:31:39.270Z,3.37
2022-10-21T22:34:53.297Z,3.30
2022-10-21T22:38:09.301Z,4.27
2022-10-21T22:41:21.311Z,4.13
2022-10-21T22:44:34.295Z,4.47
2022-10-21T22:47:37.586Z,3.67
2022-10-21T22:51:05.401Z,4.83
2022-10-21T22:54:11.615Z,3.00
2022-10-21T22:57:17.326Z,5.00
2022-10-21T23:00:24.439Z,4.15
2022-10-21T23:03:49.361Z,4.40
2022-10-21T23:07:03.402Z,5.90
2022-10-21T23:10:15.392Z,4.95
2022-10-21T23:13:15.410Z,2.97
2022-10-21T23:16:33.399Z,2.45
2022-10-21T23:19:48.437Z,6.00
2022-10-21T23:23:18.428Z,3.03
2022-10-21T23:26:24.463Z,9.20
2022-10-21T23:29:40.023Z,3.65
2022-10-21T23:32:46.483Z,4.90
2022-10-21T23:35:58.474Z,2.70
2022-10-21T23:39:15.472Z,4.77
2022-10-21T23:42:43.462Z,3.23
2022-10-21T23:45:49.499Z,2.73
2022-10-21T23:49:19.488Z,5.45
2022-10-21T23:52:19.517Z,3.30
2022-10-21T23:55:49.509Z,2.57
2022-10-21T23:58:50.515Z,4.60
